Time;durP1;ratioP1;P1;durP2;ratioP2;P2;SDS_P1;SDS_P2;PMS_P1;PMS_P2;Temp;Humidity;BMP_temperature;BMP_pressure;BME280_temperature;BME280_humidity;BME280_pressure;Samples;Min_cycle;Max_cycle;Signal;HPM_P1;HPM_P2
2021/05/12 00:00:26;;;;;;;1.00;1.00;;;;;;;8.33;100.00;96232.38;5093785;28;20200;-89
2021/05/12 00:02:54;;;;;;;1.23;1.13;;;;;;;8.25;100.00;96224.44;5093417;28;20196;-89
2021/05/12 00:05:24;;;;;;;4.53;1.20;;;;;;;8.65;100.00;96225.88;5094115;28;20254;-88
2021/05/12 00:07:52;;;;;;;2.33;1.10;;;;;;;8.91;100.00;96219.94;5093715;28;20184;-89
2021/05/12 00:10:20;;;;;;;2.00;1.80;;;;;;;8.89;100.00;96214.00;5093796;28;20196;-88
2021/05/12 00:12:47;;;;;;;1.20;1.10;;;;;;;8.80;100.00;96211.31;5093627;28;20192;-88
2021/05/12 00:15:17;;;;;;;1.50;1.40;;;;;;;8.67;100.00;96216.09;5093680;28;20200;-88
2021/05/12 00:17:47;;;;;;;1.50;1.40;;;;;;;8.48;100.00;96218.81;5092924;28;20229;-89
2021/05/12 00:20:20;;;;;;;2.73;1.27;;;;;;;8.36;100.00;96215.56;5093597;28;20687;-88
2021/05/12 00:23:03;;;;;;;1.00;1.00;;;;;;;8.55;100.00;96201.53;5093429;28;20188;-89
2021/05/12 00:25:30;;;;;;;0.77;0.77;;;;;;;8.69;100.00;96195.78;5093098;28;20196;-88
2021/05/12 00:27:58;;;;;;;1.10;1.00;;;;;;;8.81;100.00;96199.84;5093537;28;20196;-88
2021/05/12 00:30:25;;;;;;;1.13;1.00;;;;;;;8.73;100.00;96188.50;5093538;28;20754;-88
2021/05/12 00:32:52;;;;;;;1.30;1.20;;;;;;;8.70;100.00;96197.47;5093088;28;20227;-88
2021/05/12 00:35:19;;;;;;;2.50;2.10;;;;;;;8.72;100.00;96190.25;5093228;28;20204;-88
2021/05/12 00:37:47;;;;;;;1.43;1.33;;;;;;;8.47;100.00;96193.63;5093131;28;20227;-87
2021/05/12 00:40:17;;;;;;;1.20;1.20;;;;;;;8.27;100.00;96185.81;5093111;28;20201;-88
2021/05/12 00:42:45;;;;;;;1.30;1.20;;;;;;;8.12;100.00;96182.06;5093022;28;20286;-88
2021/05/12 00:45:16;;;;;;;2.40;1.20;;;;;;;8.21;100.00;96183.81;5093575;28;20200;-87
2021/05/12 00:47:48;;;;;;;1.40;1.27;;;;;;;8.26;100.00;96181.56;5093169;28;20283;-87
2021/05/12 00:50:17;;;;;;;1.87;1.03;;;;;;;8.15;100.00;96175.72;5093375;28;20218;-87
2021/05/12 00:52:56;;;;;;;2.47;1.20;;;;;;;7.93;100.00;96182.13;5110523;28;20253;-88
2021/05/12 00:55:27;;;;;;;1.03;1.03;;;;;;;7.94;100.00;96175.94;5113718;28;20274;-88
2021/05/12 00:57:55;;;;;;;2.03;1.40;;;;;;;7.93;100.00;96182.13;5113236;27;20247;-88
2021/05/12 01:00:25;;;;;;;3.23;1.43;;;;;;;8.08;100.00;96180.69;5113513;28;20196;-88
2021/05/12 01:02:52;;;;;;;1.87;1.40;;;;;;;7.99;100.00;96169.28;5113472;27;20656;-87
2021/05/12 01:05:27;;;;;;;1.40;1.30;;;;;;;7.86;100.00;96171.41;5113328;28;20730;-88
2021/05/12 01:07:54;;;;;;;2.40;1.20;;;;;;;7.79;100.00;96165.97;5113451;28;20230;-87
2021/05/12 01:10:24;;;;;;;1.30;1.20;;;;;;;7.85;100.00;96167.16;5113353;28;20647;-88
2021/05/12 01:12:52;;;;;;;1.30;1.20;;;;;;;7.83;100.00;96164.69;5113498;27;20283;-87
2021/05/12 01:15:19;;;;;;;1.80;1.70;;;;;;;7.87;100.00;96167.84;5315792;22;20622;-84
2021/05/12 01:17:46;;;;;;;2.87;2.10;;;;;;;7.89;100.00;96167.69;5031277;28;20718;-84
2021/05/12 01:20:13;;;;;;;4.33;2.70;;;;;;;7.96;100.00;96164.34;5032093;28;20199;-84
2021/05/12 01:22:41;;;;;;;3.13;2.40;;;;;;;7.63;100.00;96163.94;5031550;28;20315;-84
2021/05/12 01:25:10;;;;;;;2.10;1.60;;;;;;;7.53;100.00;96170.16;5031869;28;20230;-84
2021/05/12 01:27:38;;;;;;;1.30;1.20;;;;;;;7.50;100.00;96168.66;5031673;28;20644;-84
2021/05/12 01:30:07;;;;;;;1.30;1.20;;;;;;;7.59;100.00;96164.38;5031383;28;20230;-84
2021/05/12 01:32:35;;;;;;;7.57;2.07;;;;;;;7.52;100.00;96171.16;5031373;28;20238;-84
2021/05/12 01:35:07;;;;;;;1.50;1.40;;;;;;;7.59;100.00;96159.97;5031881;28;20194;-84
2021/05/12 01:37:35;;;;;;;2.50;1.67;;;;;;;7.50;100.00;96162.59;5034281;28;20721;-84
2021/05/12 01:40:08;;;;;;;1.50;1.17;;;;;;;7.61;100.00;96149.34;5035754;28;20199;-84
2021/05/12 01:42:35;;;;;;;1.57;1.47;;;;;;;7.26;100.00;96157.84;5035375;28;20282;-84
2021/05/12 01:45:06;;;;;;;1.00;1.00;;;;;;;7.26;100.00;96153.44;5035530;28;20694;-84
2021/05/12 01:47:33;;;;;;;1.20;1.10;;;;;;;7.18;100.00;96152.50;5035361;28;20202;-85
2021/05/12 01:50:03;;;;;;;1.00;1.00;;;;;;;7.30;100.00;96146.94;5035384;28;20589;-84
2021/05/12 01:52:30;;;;;;;1.70;1.60;;;;;;;7.43;100.00;96140.59;5035255;28;20199;-84
2021/05/12 01:54:57;;;;;;;1.40;1.30;;;;;;;7.48;100.00;96131.38;5035433;28;20695;-84
2021/05/12 01:57:25;;;;;;;1.00;1.00;;;;;;;7.61;100.00;96128.41;5035440;28;20313;-84
2021/05/12 01:59:51;;;;;;;0.90;0.90;;;;;;;7.62;100.00;96127.47;5034754;28;20293;-83
2021/05/12 02:02:18;;;;;;;0.80;0.80;;;;;;;7.60;100.00;96119.75;5034962;28;20276;-84
2021/05/12 02:04:45;;;;;;;1.03;1.03;;;;;;;7.57;100.00;96122.66;5034928;28;20312;-84
2021/05/12 02:07:14;;;;;;;0.90;0.90;;;;;;;7.64;100.00;96112.44;5035010;28;20241;-84
2021/05/12 02:09:48;;;;;;;1.47;1.37;;;;;;;7.66;100.00;96109.69;5034914;28;20190;-84
2021/05/12 02:12:14;;;;;;;1.00;1.00;;;;;;;7.51;100.00;96114.56;5034963;28;20186;-83
2021/05/12 02:14:42;;;;;;;0.90;0.90;;;;;;;7.72;100.00;96101.25;5034593;28;20285;-83
2021/05/12 02:17:12;;;;;;;1.20;1.10;;;;;;;7.75;100.00;96106.19;5034981;28;20210;-83
2021/05/12 02:19:38;;;;;;;1.33;1.10;;;;;;;7.52;100.00;96103.16;5034412;28;20260;-83
2021/05/12 02:22:05;;;;;;;1.43;1.33;;;;;;;7.34;100.00;96101.28;5034755;28;20738;-83
2021/05/12 02:24:32;;;;;;;1.73;1.37;;;;;;;7.28;100.00;96099.22;5034506;28;20234;-83
2021/05/12 02:26:59;;;;;;;1.20;1.03;;;;;;;7.24;100.00;96102.25;5034503;28;20195;-83
2021/05/12 02:29:26;;;;;;;3.67;1.00;;;;;;;7.31;100.00;96098.94;5034265;28;20686;-83
2021/05/12 02:31:53;;;;;;;1.27;1.20;;;;;;;7.30;100.00;96094.66;5034809;28;20592;-83
2021/05/12 02:34:20;;;;;;;1.30;1.20;;;;;;;7.20;100.00;96085.22;5034534;28;20199;-82
2021/05/12 02:36:47;;;;;;;0.90;0.90;;;;;;;7.17;100.00;96096.78;5034323;28;20694;-83
2021/05/12 02:39:14;;;;;;;1.70;1.10;;;;;;;7.24;100.00;96086.56;5033966;28;20228;-83
2021/05/12 02:41:41;;;;;;;7.10;6.57;;;;;;;7.21;100.00;96090.31;5034316;28;20198;-83
2021/05/12 02:44:08;;;;;;;3.40;3.17;;;;;;;7.25;100.00;96089.06;5034432;28;20647;-82
2021/05/12 02:46:34;;;;;;;4.03;1.83;;;;;;;7.13;100.00;96085.81;5034330;28;20205;-83
2021/05/12 02:49:07;;;;;;;2.50;1.40;;;;;;;7.09;100.00;96092.25;5033806;28;20648;-80
2021/05/12 02:51:34;;;;;;;1.33;1.10;;;;;;;7.07;100.00;96096.81;5034130;28;20205;-81
2021/05/12 02:54:05;;;;;;;1.13;1.07;;;;;;;7.30;100.00;96088.63;5033959;28;20206;-82
2021/05/12 02:56:35;;;;;;;3.33;1.70;;;;;;;7.35;100.00;96092.47;5033823;28;20203;-82
2021/05/12 02:59:02;;;;;;;3.07;2.10;;;;;;;7.39;100.00;96096.44;5033886;28;20198;-82
2021/05/12 03:01:28;;;;;;;1.37;1.20;;;;;;;7.41;100.00;96085.81;5033996;28;20285;-82
2021/05/12 03:03:55;;;;;;;3.00;1.63;;;;;;;7.03;100.00;96097.22;5033931;28;20237;-82
2021/05/12 03:06:23;;;;;;;2.30;1.20;;;;;;;6.91;100.00;96081.69;5033779;28;20207;-82
2021/05/12 03:08:50;;;;;;;2.17;1.50;;;;;;;7.19;100.00;96073.94;5033563;28;20198;-82
2021/05/12 03:11:17;;;;;;;1.10;1.10;;;;;;;7.30;100.00;96071.13;5033938;28;20621;-81
2021/05/12 03:13:44;;;;;;;3.03;2.17;;;;;;;6.97;100.00;96071.66;5033465;28;20710;-80
2021/05/12 03:16:11;;;;;;;1.20;1.10;;;;;;;7.08;100.00;96069.69;5033899;28;20330;-80
2021/05/12 03:18:37;;;;;;;3.73;1.30;;;;;;;7.18;100.00;96064.44;5033281;28;20313;-81
2021/05/12 03:21:05;;;;;;;1.33;1.23;;;;;;;7.01;100.00;96070.41;5032681;28;20563;-80
2021/05/12 03:23:33;;;;;;;3.50;2.30;;;;;;;6.88;100.00;96065.47;5047663;28;20210;-80
2021/05/12 03:26:00;;;;;;;2.27;1.50;;;;;;;6.67;100.00;96063.03;5032191;28;20202;-80
2021/05/12 03:28:27;;;;;;;14.70;8.50;;;;;;;6.74;100.00;96053.69;5032532;28;20191;-81
2021/05/12 03:30:54;;;;;;;13.13;10.70;;;;;;;6.95;100.00;96045.66;5032403;28;20256;-83
2021/05/12 03:33:21;;;;;;;19.80;16.63;;;;;;;7.25;100.00;96049.03;5032549;28;20198;-82
2021/05/12 03:35:48;;;;;;;9.97;6.63;;;;;;;7.11;100.00;96056.34;5032217;28;20201;-81
2021/05/12 03:38:15;;;;;;;16.87;8.63;;;;;;;6.90;100.00;96046.09;5031720;28;20222;-80
2021/05/12 03:40:43;;;;;;;428.03;251.60;;;;;;;6.78;100.00;96059.44;5032164;28;20209;-81
2021/05/12 03:43:12;;;;;;;329.13;161.13;;;;;;;7.02;100.00;96051.97;5032949;28;20202;-81
2021/05/12 03:45:40;;;;;;;348.13;168.07;;;;;;;7.06;100.00;96052.50;5032348;28;20264;-80
2021/05/12 03:48:08;;;;;;;167.37;86.97;;;;;;;6.89;100.00;96051.44;5031311;28;20682;-81
2021/05/12 03:50:35;;;;;;;39.93;24.97;;;;;;;6.98;100.00;96047.19;5031558;28;20229;-80
2021/05/12 03:53:02;;;;;;;28.70;16.07;;;;;;;6.83;100.00;96057.25;5031459;28;20209;-81
2021/05/12 03:55:29;;;;;;;24.83;15.33;;;;;;;6.87;100.00;96054.22;5031908;28;20241;-81
2021/05/12 03:57:56;;;;;;;21.13;10.83;;;;;;;6.84;100.00;96053.66;5031422;28;20261;-81
2021/05/12 04:00:23;;;;;;;12.47;6.40;;;;;;;6.78;100.00;96054.22;5031036;28;20214;-81
2021/05/12 04:02:51;;;;;;;8.17;5.53;;;;;;;6.87;100.00;96043.75;5031853;28;20592;-81
2021/05/12 04:05:18;;;;;;;6.00;4.53;;;;;;;6.87;100.00;96037.72;5031237;28;20226;-81
2021/05/12 04:07:45;;;;;;;7.00;3.57;;;;;;;7.10;100.00;96035.56;5031552;28;20287;-81
2021/05/12 04:10:12;;;;;;;5.20;3.50;;;;;;;7.36;100.00;96033.16;5031517;28;20234;-81
2021/05/12 04:12:40;;;;;;;10.47;6.53;;;;;;;7.30;100.00;96038.94;5031487;28;20282;-81
2021/05/12 04:15:09;;;;;;;29.40;19.37;;;;;;;7.25;100.00;96035.97;5031171;28;20353;-81
2021/05/12 04:17:36;;;;;;;61.73;43.37;;;;;;;7.31;100.00;96020.53;5030877;28;20313;-83
2021/05/12 04:20:05;;;;;;;73.10;50.30;;;;;;;7.43;100.00;96026.38;5028040;28;20289;-80
2021/05/12 04:22:35;;;;;;;22.00;15.17;;;;;;;7.41;100.00;96030.91;5031068;28;20213;-81
2021/05/12 04:25:02;;;;;;;5.63;3.93;;;;;;;7.32;100.00;96031.78;5030178;28;20635;-81
2021/05/12 04:27:35;;;;;;;2.83;2.33;;;;;;;7.33;100.00;96023.78;5031990;28;20281;-82
2021/05/12 04:30:01;;;;;;;2.53;1.93;;;;;;;7.55;100.00;96021.75;5031829;28;20740;-80
2021/05/12 04:32:29;;;;;;;3.80;2.87;;;;;;;7.58;100.00;96024.91;5032030;28;20199;-80
2021/05/12 04:34:59;;;;;;;8.47;6.43;;;;;;;7.72;100.00;96023.59;5031625;28;20198;-81
2021/05/12 04:37:26;;;;;;;5.13;3.73;;;;;;;7.73;100.00;96021.81;5031913;28;20234;-80
2021/05/12 04:39:53;;;;;;;3.50;3.20;;;;;;;7.85;100.00;96018.84;5031846;28;20797;-81
2021/05/12 04:42:20;;;;;;;1.73;1.63;;;;;;;7.86;100.00;96010.03;5031759;28;20194;-82
2021/05/12 04:44:46;;;;;;;1.40;1.30;;;;;;;7.99;100.00;96009.66;5031606;28;20198;-82
2021/05/12 04:47:13;;;;;;;1.57;1.47;;;;;;;8.12;100.00;96011.91;5032060;28;20202;-81
2021/05/12 04:49:45;;;;;;;1.60;1.50;;;;;;;8.16;100.00;96002.78;5031662;28;20238;-81
2021/05/12 04:52:15;;;;;;;1.27;1.17;;;;;;;8.27;100.00;96002.53;5031893;28;20212;-82
2021/05/12 04:54:45;;;;;;;4.90;1.40;;;;;;;8.22;100.00;95994.31;5031703;28;20238;-82
2021/05/12 04:57:11;;;;;;;2.60;1.77;;;;;;;8.36;100.00;95997.38;5031766;28;20233;-82
2021/05/12 04:59:38;;;;;;;2.40;1.50;;;;;;;8.49;100.00;96000.47;5031748;28;20628;-81
2021/05/12 05:02:06;;;;;;;3.60;1.73;;;;;;;8.66;100.00;95986.53;5031916;28;20203;-83
2021/05/12 05:04:35;;;;;;;8.57;2.40;;;;;;;8.76;100.00;95984.63;5031944;28;20275;-83
2021/05/12 05:07:03;;;;;;;7.13;1.90;;;;;;;8.98;100.00;95980.66;5031422;28;20202;-82
2021/05/12 05:09:30;;;;;;;4.90;1.70;;;;;;;9.18;100.00;95977.78;5031467;28;20741;-83
2021/05/12 05:11:57;;;;;;;3.27;2.57;;;;;;;9.37;100.00;95967.06;5038039;28;20237;-82
2021/05/12 05:14:24;;;;;;;4.53;2.07;;;;;;;9.44;100.00;95975.94;5036727;28;20238;-81
2021/05/12 05:16:51;;;;;;;6.27;2.13;;;;;;;9.61;100.00;95971.56;5038207;28;20725;-82
2021/05/12 05:19:21;;;;;;;6.80;2.30;;;;;;;9.83;100.00;95964.88;5038535;28;20580;-82
2021/05/12 05:21:49;;;;;;;7.53;3.43;;;;;;;10.01;100.00;95972.66;5038755;28;20313;-80
2021/05/12 05:24:19;;;;;;;9.13;4.90;;;;;;;10.24;100.00;95963.13;5038191;28;20202;-81
2021/05/12 05:26:52;;;;;;;11.70;5.77;;;;;;;10.37;100.00;95964.47;5037835;28;20198;-82
2021/05/12 05:29:19;;;;;;;39.17;16.67;;;;;;;10.62;100.00;95971.34;5037848;28;20198;-82
2021/05/12 05:31:55;;;;;;;5.77;4.23;;;;;;;10.89;100.00;95974.59;5038498;28;20632;-82
2021/05/12 05:34:21;;;;;;;2.57;1.67;;;;;;;11.14;100.00;95978.81;5037449;28;20628;-82
2021/05/12 05:36:48;;;;;;;4.50;2.87;;;;;;;11.30;100.00;95979.75;5037845;28;20289;-81
2021/05/12 05:39:18;;;;;;;4.07;3.00;;;;;;;11.51;100.00;95980.00;5037361;28;20199;-83
2021/05/12 05:41:45;;;;;;;2.10;1.70;;;;;;;11.70;100.00;95976.09;5038177;28;20662;-83
2021/05/12 05:44:15;;;;;;;3.73;1.80;;;;;;;11.80;100.00;95976.72;5037159;28;20199;-83
2021/05/12 05:46:42;;;;;;;8.53;5.10;;;;;;;12.05;100.00;95981.88;5038106;28;20202;-82
2021/05/12 05:49:15;;;;;;;6.97;4.50;;;;;;;12.22;100.00;95972.03;5037524;28;20312;-83
2021/05/12 05:51:42;;;;;;;13.07;6.50;;;;;;;12.36;100.00;95976.53;5037631;28;20206;-82
2021/05/12 05:54:12;;;;;;;27.47;17.27;;;;;;;12.64;100.00;95970.72;5037394;28;20203;-80
2021/05/12 05:56:38;;;;;;;4.57;3.53;;;;;;;12.59;100.00;95958.06;5037934;28;20202;-82
2021/05/12 05:59:06;;;;;;;8.50;6.33;;;;;;;12.68;100.00;95957.00;5037923;28;20285;-82
2021/05/12 06:01:42;;;;;;;18.03;10.83;;;;;;;13.05;100.00;95957.94;5037394;28;20248;-81
2021/05/12 06:04:19;;;;;;;3.93;2.23;;;;;;;13.13;100.00;95957.88;5037620;28;20201;-83
2021/05/12 06:06:54;;;;;;;4.77;3.70;;;;;;;13.29;100.00;95954.25;5037742;28;20198;-82
2021/05/12 06:09:22;;;;;;;5.07;4.57;;;;;;;13.64;100.00;95938.63;5037597;28;20209;-83
2021/05/12 06:11:49;;;;;;;2.60;2.20;;;;;;;13.96;100.00;95930.25;5037503;28;20236;-82
2021/05/12 06:14:26;;;;;;;3.40;1.93;;;;;;;13.93;100.00;95928.00;5037372;28;20726;-82
2021/05/12 06:16:56;;;;;;;3.30;3.00;;;;;;;14.16;100.00;95919.06;5017900;28;20190;-82
2021/05/12 06:19:25;;;;;;;3.83;2.03;;;;;;;14.12;100.00;95929.19;5017824;28;20207;-82
2021/05/12 06:21:52;;;;;;;2.57;1.93;;;;;;;14.32;100.00;95920.63;5015982;28;20203;-82
2021/05/12 06:24:25;;;;;;;8.73;5.50;;;;;;;14.55;100.00;95923.91;5013336;28;20249;-83
2021/05/12 06:26:56;;;;;;;6.27;4.33;;;;;;;14.74;100.00;95925.06;5014080;28;20199;-82
2021/05/12 06:29:26;;;;;;;24.33;14.53;;;;;;;14.94;100.00;95925.19;5014636;28;20199;-83
2021/05/12 06:31:56;;;;;;;11.60;6.47;;;;;;;15.17;100.00;95917.81;5014616;28;20210;-82
2021/05/12 06:34:23;;;;;;;8.00;3.03;;;;;;;15.11;100.00;95923.88;5014766;28;20384;-82
2021/05/12 06:36:50;;;;;;;3.20;2.90;;;;;;;15.00;100.00;95924.44;5014277;28;20192;-83
2021/05/12 06:39:23;;;;;;;3.77;2.00;;;;;;;15.49;100.00;95907.56;5014634;28;20223;-83
2021/05/12 06:41:49;;;;;;;2.83;1.83;;;;;;;15.30;100.00;95908.28;5014668;28;20200;-82
2021/05/12 06:44:16;;;;;;;1.17;1.07;;;;;;;15.01;100.00;95904.06;5014357;28;20207;-83
2021/05/12 06:46:44;;;;;;;4.93;1.93;;;;;;;15.47;100.00;95896.34;5014065;28;20212;-82
2021/05/12 06:49:11;;;;;;;3.50;2.90;;;;;;;15.76;100.00;95897.06;5014592;28;20234;-84
2021/05/12 06:51:38;;;;;;;3.77;1.73;;;;;;;15.72;100.00;95896.63;5014559;28;20283;-83
2021/05/12 06:54:05;;;;;;;2.20;2.00;;;;;;;15.76;100.00;95892.59;5014167;28;20228;-85
2021/05/12 06:56:35;;;;;;;4.73;3.40;;;;;;;16.15;100.00;95883.91;5014091;28;20288;-84
2021/05/12 06:59:02;;;;;;;4.17;2.17;;;;;;;15.96;100.00;95889.16;5014569;28;20315;-82
2021/05/12 07:01:29;;;;;;;2.87;1.30;;;;;;;15.65;100.00;95893.94;5014180;28;20199;-83
2021/05/12 07:03:57;;;;;;;2.53;1.60;;;;;;;16.25;100.00;95880.84;5014063;28;20204;-82
2021/05/12 07:06:23;;;;;;;3.50;1.90;;;;;;;16.86;100.00;95874.50;5013517;28;20243;-82
2021/05/12 07:08:53;;;;;;;3.50;2.77;;;;;;;16.64;100.00;95873.88;5013632;28;20197;-83
2021/05/12 07:11:21;;;;;;;1.40;1.30;;;;;;;16.59;100.00;95876.34;5014059;28;20243;-83
2021/05/12 07:13:48;;;;;;;1.67;1.30;;;;;;;16.85;100.00;95871.03;5013887;28;20205;-82
2021/05/12 07:16:17;;;;;;;1.80;1.70;;;;;;;16.80;100.00;95868.19;5028637;28;20232;-85
2021/05/12 07:18:47;;;;;;;1.60;1.50;;;;;;;17.36;100.00;95856.16;5033489;28;20278;-84
2021/05/12 07:21:24;;;;;;;9.37;1.93;;;;;;;17.47;100.00;95852.03;5033965;28;20197;-87
2021/05/12 07:23:51;;;;;;;2.07;1.83;;;;;;;16.50;100.00;95869.63;5034143;28;20204;-87
2021/05/12 07:26:23;;;;;;;4.73;1.83;;;;;;;16.95;100.00;95870.59;5033749;28;20234;-88
2021/05/12 07:28:50;;;;;;;3.57;2.23;;;;;;;16.58;100.00;95874.72;5032959;28;20197;-85
2021/05/12 07:31:20;;;;;;;3.47;1.80;;;;;;;16.94;100.00;95873.44;5033085;28;20661;-86
2021/05/12 07:33:53;;;;;;;4.67;2.23;;;;;;;16.98;100.00;95864.06;5032069;28;20256;-85
2021/05/12 07:36:27;;;;;;;1.40;1.30;;;;;;;17.19;100.00;95866.44;5033463;28;20229;-84
2021/05/12 07:38:54;;;;;;;5.13;2.07;;;;;;;16.50;100.00;95864.31;5032557;28;20233;-85
2021/05/12 07:41:20;;;;;;;1.90;1.70;;;;;;;17.07;100.00;95849.53;5033070;28;20204;-85
2021/05/12 07:43:53;;;;;;;3.30;2.07;;;;;;;17.33;100.00;95843.31;5033139;28;20211;-87
2021/05/12 07:46:20;;;;;;;1.63;1.53;;;;;;;17.85;100.00;95833.44;5033219;28;20213;-87
2021/05/12 07:48:53;;;;;;;3.00;1.70;;;;;;;17.66;100.00;95835.16;5032803;28;20204;-86
2021/05/12 07:51:20;;;;;;;5.60;1.90;;;;;;;17.35;100.00;95844.75;5033252;28;20190;-87
2021/05/12 07:53:50;;;;;;;2.50;1.93;;;;;;;17.06;100.00;95834.63;5032637;28;20297;-86
2021/05/12 07:56:20;;;;;;;4.97;2.40;;;;;;;17.21;100.00;95832.50;5032788;28;20234;-85
2021/05/12 07:58:47;;;;;;;5.43;1.70;;;;;;;17.57;100.00;95816.00;5033194;28;20261;-89
2021/05/12 08:01:22;;;;;;;4.80;2.10;;;;;;;17.37;100.00;95814.47;5032842;28;20215;-86
2021/05/12 08:03:55;;;;;;;4.97;2.07;;;;;;;17.34;100.00;95823.69;5032731;28;20201;-86
2021/05/12 08:06:24;;;;;;;2.67;1.80;;;;;;;16.51;100.00;95842.88;5032576;28;20203;-87
2021/05/12 08:08:52;;;;;;;3.73;1.80;;;;;;;16.52;100.00;95849.00;5033240;28;20197;-88
2021/05/12 08:11:22;;;;;;;3.10;1.90;;;;;;;16.50;100.00;95843.09;5033519;28;20631;-87
2021/05/12 08:13:49;;;;;;;2.93;2.00;;;;;;;16.36;100.00;95851.06;5032814;28;20200;-89
2021/05/12 08:16:15;;;;;;;9.97;3.77;;;;;;;16.47;100.00;95844.31;5032940;28;20236;-89
2021/05/12 08:18:42;;;;;;;1.90;1.80;;;;;;;16.03;100.00;95837.78;5032764;28;20237;-87
2021/05/12 08:21:15;;;;;;;3.13;1.90;;;;;;;15.71;100.00;95841.22;5033004;28;20193;-87
2021/05/12 08:23:45;;;;;;;2.57;2.30;;;;;;;15.72;100.00;95838.34;5032054;28;20207;-86
2021/05/12 08:26:17;;;;;;;7.70;2.53;;;;;;;16.50;100.00;95829.84;5032741;28;20665;-86
2021/05/12 08:28:44;;;;;;;4.17;2.67;;;;;;;16.72;100.00;95817.94;5032400;28;20332;-86
2021/05/12 08:31:15;;;;;;;4.30;1.60;;;;;;;16.61;100.00;95821.25;5032479;28;20193;-86
2021/05/12 08:33:45;;;;;;;1.67;1.57;;;;;;;16.95;100.00;95808.72;5032167;28;20193;-87
2021/05/12 08:36:15;;;;;;;2.97;1.90;;;;;;;16.55;100.00;95814.91;5032767;28;20208;-87
2021/05/12 08:38:46;;;;;;;3.73;1.77;;;;;;;16.65;100.00;95811.84;5032192;28;20221;-87
2021/05/12 08:41:14;;;;;;;10.00;4.47;;;;;;;16.80;100.00;95804.50;5032638;28;20194;-89
2021/05/12 08:43:46;;;;;;;6.73;3.63;;;;;;;17.43;100.00;95795.03;5033022;28;20200;-88
2021/05/12 08:46:20;;;;;;;3.70;3.27;;;;;;;17.50;100.00;95787.84;5032359;28;20205;-89
2021/05/12 08:48:54;;;;;;;20.10;12.07;;;;;;;18.34;100.00;95777.84;5032908;28;20209;-87
2021/05/12 08:51:26;;;;;;;3.87;3.10;;;;;;;18.31;100.00;95784.41;5032534;28;20252;-87
2021/05/12 08:53:56;;;;;;;6.60;4.70;;;;;;;18.91;100.00;95768.66;5032724;28;20209;-89
2021/05/12 08:56:23;;;;;;;12.83;7.97;;;;;;;19.10;100.00;95763.31;5032574;28;20220;-90
2021/05/12 08:58:56;;;;;;;4.07;3.37;;;;;;;18.91;100.00;95763.34;5032528;28;20230;-88
2021/05/12 09:01:23;;;;;;;12.97;8.57;;;;;;;19.25;100.00;95753.88;5032435;28;20674;-91
2021/05/12 09:03:56;;;;;;;6.83;4.73;;;;;;;19.42;100.00;95751.41;5032662;28;20202;-88
2021/05/12 09:06:26;;;;;;;14.93;10.13;;;;;;;19.75;100.00;95752.81;5032666;28;20340;-88
2021/05/12 09:08:58;;;;;;;15.47;9.33;;;;;;;19.84;100.00;95745.28;5032118;28;20308;-89
2021/05/12 09:11:25;;;;;;;33.20;20.30;;;;;;;20.37;100.00;95739.88;5032133;28;20204;-87
2021/05/12 09:13:56;;;;;;;13.63;8.10;;;;;;;20.13;100.00;95741.72;5032318;28;20203;-87
2021/05/12 09:16:25;;;;;;;8.40;2.83;;;;;;;19.70;100.00;95736.66;5032024;28;20230;-89
2021/05/12 09:19:04;;;;;;;3.33;1.97;;;;;;;19.85;100.00;95738.91;5032500;28;20277;-89
2021/05/12 09:21:46;;;;;;;10.97;4.43;;;;;;;19.91;100.00;95743.31;5032605;28;20233;-90
2021/05/12 09:24:31;;;;;;;2.40;1.60;;;;;;;20.43;100.00;95738.13;5029958;28;20294;-85
2021/05/12 09:27:02;;;;;;;7.93;3.17;;;;;;;19.90;100.00;95739.03;5031714;28;20577;-87
2021/05/12 09:29:31;;;;;;;5.10;1.77;;;;;;;19.47;100.00;95735.56;5031749;28;20206;-90
2021/05/12 09:32:12;;;;;;;2.33;1.70;;;;;;;19.18;100.00;95745.16;5032466;28;20209;-87
2021/05/12 09:34:57;;;;;;;3.50;1.90;;;;;;;19.33;100.00;95744.78;5031868;28;20259;-88
2021/05/12 09:37:31;;;;;;;4.53;2.63;;;;;;;19.33;100.00;95735.94;5031785;28;20210;-90
2021/05/12 09:40:00;;;;;;;1.43;1.33;;;;;;;19.63;100.00;95739.44;5031784;28;20244;-92
2021/05/12 09:42:27;;;;;;;3.50;1.50;;;;;;;19.67;100.00;95732.63;5032239;28;20594;-86
2021/05/12 09:45:24;;;;;;;4.47;1.70;;;;;;;19.63;100.00;95728.78;5031952;28;20329;-88
2021/05/12 09:47:52;;;;;;;2.40;1.93;;;;;;;19.59;100.00;95732.09;5032656;28;20265;-91
2021/05/12 09:50:24;;;;;;;5.07;1.73;;;;;;;19.41;100.00;95735.66;5031932;28;20289;-90
2021/05/12 09:53:01;;;;;;;3.60;1.90;;;;;;;19.69;100.00;95727.88;5032408;28;20572;-92
2021/05/12 09:55:40;;;;;;;3.13;1.57;;;;;;;20.00;100.00;95723.28;5032319;28;20194;-91
2021/05/12 09:58:13;;;;;;;2.50;1.63;;;;;;;19.83;100.00;95727.66;5033644;28;20645;-88
2021/05/12 10:00:42;;;;;;;2.93;2.13;;;;;;;19.64;100.00;95727.75;5035423;28;20341;-88
2021/05/12 10:03:13;;;;;;;1.97;1.63;;;;;;;20.04;100.00;95719.09;5035842;28;20809;-89
2021/05/12 10:06:01;;;;;;;4.60;1.60;;;;;;;20.02;100.00;95723.88;5035782;28;20210;-89
2021/05/12 10:08:31;;;;;;;2.40;2.13;;;;;;;20.02;100.00;95726.53;5035331;28;20203;-90
2021/05/12 10:11:02;;;;;;;1.83;1.73;;;;;;;20.35;100.00;95727.81;5035785;28;20195;-90
2021/05/12 10:13:30;;;;;;;3.37;1.90;;;;;;;20.13;100.00;95723.06;5035639;28;20555;-88
2021/05/12 10:16:01;;;;;;;4.73;1.67;;;;;;;19.85;100.00;95720.25;5034622;28;20226;-88
2021/05/12 10:18:28;;;;;;;3.23;1.90;;;;;;;20.09;100.00;95715.72;5035334;28;20305;-87
2021/05/12 10:21:00;;;;;;;2.83;1.57;;;;;;;20.52;100.00;95707.38;5035292;28;20701;-88
2021/05/12 10:23:28;;;;;;;2.10;1.57;;;;;;;20.83;100.00;95684.00;5035385;28;20202;-90
2021/05/12 10:25:58;;;;;;;3.43;1.50;;;;;;;20.82;100.00;95687.72;5035193;28;20234;-90
2021/05/12 10:28:26;;;;;;;3.10;1.60;;;;;;;20.98;100.00;95673.59;5035470;28;20206;-90
2021/05/12 10:30:54;;;;;;;4.70;1.70;;;;;;;21.44;100.00;95661.09;5035290;28;20289;-89
2021/05/12 10:33:45;;;;;;;3.00;2.53;;;;;;;21.26;100.00;95654.06;5035841;28;20221;-88
2021/05/12 10:36:13;;;;;;;2.57;2.13;;;;;;;20.88;100.00;95662.69;5035516;28;20563;-88
2021/05/12 10:38:47;;;;;;;6.13;3.00;;;;;;;21.20;100.00;95663.06;5034746;28;20276;-87
2021/05/12 10:41:47;;;;;;;3.03;2.27;;;;;;;21.08;100.00;95655.06;5035597;28;20210;-89
2021/05/12 10:44:18;;;;;;;5.43;2.60;;;;;;;20.72;100.00;95656.28;5035353;28;20825;-88
2021/05/12 10:47:06;;;;;;;1.80;1.70;;;;;;;21.05;100.00;95654.75;5035149;28;20255;-88
2021/05/12 10:49:34;;;;;;;1.57;1.47;;;;;;;20.88;100.00;95662.69;5034690;28;20214;-88
2021/05/12 10:52:06;;;;;;;2.27;1.60;;;;;;;20.78;100.00;95670.50;5034887;28;20195;-88
2021/05/12 10:54:48;;;;;;;3.67;1.60;;;;;;;20.85;100.00;95665.84;5034844;28;20245;-89
2021/05/12 10:57:47;;;;;;;2.87;1.83;;;;;;;20.87;100.00;95666.44;5034248;28;20191;-87
2021/05/12 11:00:16;;;;;;;2.07;1.50;;;;;;;21.33;100.00;95645.88;5033875;28;20206;-89
2021/05/12 11:03:02;;;;;;;1.90;1.70;;;;;;;21.45;100.00;95638.66;5035181;28;20658;-90
2021/05/12 11:06:07;;;;;;;3.53;1.90;;;;;;;21.41;100.00;95640.19;5034832;28;20230;-91
2021/05/12 11:08:34;;;;;;;4.47;1.60;;;;;;;21.14;100.00;95648.78;5034604;28;20281;-92
2021/05/12 11:11:03;;;;;;;3.40;2.20;;;;;;;21.02;100.00;95650.69;5034770;28;20267;-91
2021/05/12 11:13:31;;;;;;;3.63;2.70;;;;;;;21.16;100.00;95645.84;5035064;28;20198;-91
2021/05/12 11:15:59;;;;;;;4.80;1.77;;;;;;;21.03;100.00;95649.66;5034570;28;20293;-90
2021/05/12 11:18:50;;;;;;;1.63;1.50;;;;;;;21.34;100.00;95635.00;5034626;28;20313;-91
2021/05/12 11:21:34;;;;;;;6.70;2.60;;;;;;;21.28;100.00;95643.13;5030147;28;20202;-92
2021/05/12 11:24:14;;;;;;;6.13;3.87;;;;;;;21.45;100.00;95643.19;5034668;28;20187;-92
2021/05/12 11:27:02;;;;;;;3.20;1.77;;;;;;;21.40;100.00;95643.88;5034536;28;20198;-90
2021/05/12 11:32:13;;;;;;;2.80;1.90;;;;;;;21.27;100.00;95641.53;5034583;28;20328;-90
2021/05/12 11:34:42;;;;;;;3.10;1.70;;;;;;;20.84;100.00;95637.53;5034293;28;20195;-93
2021/05/12 11:37:14;;;;;;;2.67;1.90;;;;;;;21.36;100.00;95624.84;5034596;28;20194;-92
2021/05/12 11:39:47;;;;;;;2.07;1.87;;;;;;;21.16;100.00;95623.66;5034206;28;20222;-91
2021/05/12 11:42:21;;;;;;;3.03;1.93;;;;;;;21.34;100.00;95626.97;5033902;28;20277;-90